sensor_id;sensor_type;location;lat;lon;timestamp;temperature;humidity
65369;HTU21D;51970;53.484;49.488;2023-04-29T00:00:20;10.39;76.08
65369;HTU21D;51970;53.484;49.488;2023-04-29T00:02:47;10.44;76.05
65369;HTU21D;51970;53.484;49.488;2023-04-29T00:05:13;10.46;75.98
65369;HTU21D;51970;53.484;49.488;2023-04-29T00:07:41;10.40;76.15
65369;HTU21D;51970;53.484;49.488;2023-04-29T00:10:08;10.43;76.14
65369;HTU21D;51970;53.484;49.488;2023-04-29T00:12:34;10.48;75.64
65369;HTU21D;51970;53.484;49.488;2023-04-29T00:15:00;10.54;75.53
65369;HTU21D;51970;53.484;49.488;2023-04-29T00:17:27;10.58;75.41
65369;HTU21D;51970;53.484;49.488;2023-04-29T00:19:53;10.59;75.12
65369;HTU21D;51970;53.484;49.488;2023-04-29T00:22:20;10.60;74.77
65369;HTU21D;51970;53.484;49.488;2023-04-29T00:24:47;10.62;74.64
65369;HTU21D;51970;53.484;49.488;2023-04-29T00:27:14;10.62;74.62
65369;HTU21D;51970;53.484;49.488;2023-04-29T00:29:41;10.64;73.96
65369;HTU21D;51970;53.484;49.488;2023-04-29T00:32:07;10.67;74.27
65369;HTU21D;51970;53.484;49.488;2023-04-29T00:34:34;10.62;74.70
65369;HTU21D;51970;53.484;49.488;2023-04-29T00:37:00;10.52;74.86
65369;HTU21D;51970;53.484;49.488;2023-04-29T00:39:28;10.43;75.63
65369;HTU21D;51970;53.484;49.488;2023-04-29T00:41:55;10.30;75.89
65369;HTU21D;51970;53.484;49.488;2023-04-29T00:44:22;10.26;76.31
65369;HTU21D;51970;53.484;49.488;2023-04-29T00:46:48;10.25;76.21
65369;HTU21D;51970;53.484;49.488;2023-04-29T00:49:15;10.28;75.09
65369;HTU21D;51970;53.484;49.488;2023-04-29T00:51:42;10.42;72.93
65369;HTU21D;51970;53.484;49.488;2023-04-29T00:54:09;10.64;70.44
65369;HTU21D;51970;53.484;49.488;2023-04-29T00:56:36;10.94;67.84
65369;HTU21D;51970;53.484;49.488;2023-04-29T00:59:04;11.24;67.48
65369;HTU21D;51970;53.484;49.488;2023-04-29T01:01:31;11.40;65.62
65369;HTU21D;51970;53.484;49.488;2023-04-29T01:03:58;11.52;65.04
65369;HTU21D;51970;53.484;49.488;2023-04-29T01:11:52;11.72;64.27
65369;HTU21D;51970;53.484;49.488;2023-04-29T01:14:21;11.78;63.49
65369;HTU21D;51970;53.484;49.488;2023-04-29T01:16:55;11.86;63.34
65369;HTU21D;51970;53.484;49.488;2023-04-29T01:22:06;12.03;62.37
65369;HTU21D;51970;53.484;49.488;2023-04-29T01:24:34;12.11;62.05
65369;HTU21D;51970;53.484;49.488;2023-04-29T01:38:59;13.04;59.28
65369;HTU21D;51970;53.484;49.488;2023-04-29T01:41:41;13.41;58.35
65369;HTU21D;51970;53.484;49.488;2023-04-29T01:44:14;13.62;56.69
65369;HTU21D;51970;53.484;49.488;2023-04-29T01:46:42;14.01;55.10
65369;HTU21D;51970;53.484;49.488;2023-04-29T01:49:11;14.79;53.23
65369;HTU21D;51970;53.484;49.488;2023-04-29T01:51:37;15.43;50.90
65369;HTU21D;51970;53.484;49.488;2023-04-29T01:54:04;16.22;48.75
65369;HTU21D;51970;53.484;49.488;2023-04-29T01:56:30;17.05;46.57
65369;HTU21D;51970;53.484;49.488;2023-04-29T01:58:56;17.56;44.96
65369;HTU21D;51970;53.484;49.488;2023-04-29T02:01:22;18.06;43.49
65369;HTU21D;51970;53.484;49.488;2023-04-29T02:03:48;18.76;41.18
65369;HTU21D;51970;53.484;49.488;2023-04-29T02:06:14;18.84;40.96
65369;HTU21D;51970;53.484;49.488;2023-04-29T02:08:40;19.44;39.66
65369;HTU21D;51970;53.484;49.488;2023-04-29T02:11:09;19.84;38.65
65369;HTU21D;51970;53.484;49.488;2023-04-29T02:13:35;20.40;37.46
65369;HTU21D;51970;53.484;49.488;2023-04-29T02:16:12;21.07;36.07
65369;HTU21D;51970;53.484;49.488;2023-04-29T02:18:39;21.50;34.91
65369;HTU21D;51970;53.484;49.488;2023-04-29T02:21:06;21.77;34.08
65369;HTU21D;51970;53.484;49.488;2023-04-29T02:23:34;21.72;34.07
65369;HTU21D;51970;53.484;49.488;2023-04-29T02:26:00;21.68;34.68
65369;HTU21D;51970;53.484;49.488;2023-04-29T02:28:29;22.12;33.53
65369;HTU21D;51970;53.484;49.488;2023-04-29T02:30:56;22.82;32.68
65369;HTU21D;51970;53.484;49.488;2023-04-29T02:33:22;23.36;31.06
65369;HTU21D;51970;53.484;49.488;2023-04-29T02:35:48;23.49;30.72
65369;HTU21D;51970;53.484;49.488;2023-04-29T02:38:14;23.52;30.54
65369;HTU21D;51970;53.484;49.488;2023-04-29T02:40:44;23.85;30.25
65369;HTU21D;51970;53.484;49.488;2023-04-29T02:43:11;24.36;29.06
65369;HTU21D;51970;53.484;49.488;2023-04-29T02:45:38;24.58;29.06
65369;HTU21D;51970;53.484;49.488;2023-04-29T02:48:05;24.74;28.59
65369;HTU21D;51970;53.484;49.488;2023-04-29T02:50:31;24.65;28.36
65369;HTU21D;51970;53.484;49.488;2023-04-29T02:52:57;24.44;28.46
65369;HTU21D;51970;53.484;49.488;2023-04-29T02:55:24;24.73;28.33
65369;HTU21D;51970;53.484;49.488;2023-04-29T02:57:52;24.72;28.10
65369;HTU21D;51970;53.484;49.488;2023-04-29T03:00:18;24.70;28.45
65369;HTU21D;51970;53.484;49.488;2023-04-29T03:02:47;25.34;27.76
65369;HTU21D;51970;53.484;49.488;2023-04-29T03:05:15;25.61;26.67
65369;HTU21D;51970;53.484;49.488;2023-04-29T03:07:41;25.95;26.31
65369;HTU21D;51970;53.484;49.488;2023-04-29T03:10:13;26.38;25.93
65369;HTU21D;51970;53.484;49.488;2023-04-29T03:12:46;26.12;25.96
65369;HTU21D;51970;53.484;49.488;2023-04-29T03:15:15;26.25;26.47
65369;HTU21D;51970;53.484;49.488;2023-04-29T03:17:42;25.43;26.91
65369;HTU21D;51970;53.484;49.488;2023-04-29T03:20:11;23.03;31.03
65369;HTU21D;51970;53.484;49.488;2023-04-29T03:22:37;21.44;34.44
65369;HTU21D;51970;53.484;49.488;2023-04-29T03:25:04;20.59;37.21
65369;HTU21D;51970;53.484;49.488;2023-04-29T03:27:31;19.99;37.80
65369;HTU21D;51970;53.484;49.488;2023-04-29T03:30:00;19.52;38.68
65369;HTU21D;51970;53.484;49.488;2023-04-29T03:32:28;19.16;39.20
65369;HTU21D;51970;53.484;49.488;2023-04-29T03:34:54;19.12;39.62
65369;HTU21D;51970;53.484;49.488;2023-04-29T03:37:20;19.03;40.04
65369;HTU21D;51970;53.484;49.488;2023-04-29T03:39:47;19.08;39.76
65369;HTU21D;51970;53.484;49.488;2023-04-29T03:42:13;19.03;40.66
65369;HTU21D;51970;53.484;49.488;2023-04-29T03:44:44;19.02;39.88
65369;HTU21D;51970;53.484;49.488;2023-04-29T03:47:10;18.96;40.12
65369;HTU21D;51970;53.484;49.488;2023-04-29T03:49:39;18.84;41.31
65369;HTU21D;51970;53.484;49.488;2023-04-29T03:52:10;18.81;40.97
65369;HTU21D;51970;53.484;49.488;2023-04-29T03:54:38;18.88;41.47
65369;HTU21D;51970;53.484;49.488;2023-04-29T03:57:05;18.93;41.76
65369;HTU21D;51970;53.484;49.488;2023-04-29T03:59:31;19.02;41.58
65369;HTU21D;51970;53.484;49.488;2023-04-29T04:01:57;19.14;41.67
65369;HTU21D;51970;53.484;49.488;2023-04-29T04:04:26;19.17;41.27
65369;HTU21D;51970;53.484;49.488;2023-04-29T04:06:57;19.29;40.82
65369;HTU21D;51970;53.484;49.488;2023-04-29T04:09:24;19.38;39.60
65369;HTU21D;51970;53.484;49.488;2023-04-29T04:11:55;19.29;39.88
65369;HTU21D;51970;53.484;49.488;2023-04-29T04:14:22;19.26;39.79
65369;HTU21D;51970;53.484;49.488;2023-04-29T04:16:49;19.29;39.91
65369;HTU21D;51970;53.484;49.488;2023-04-29T04:19:24;19.33;39.59
65369;HTU21D;51970;53.484;49.488;2023-04-29T04:21:52;19.48;39.30
65369;HTU21D;51970;53.484;49.488;2023-04-29T04:24:23;19.75;39.55
65369;HTU21D;51970;53.484;49.488;2023-04-29T04:26:51;19.70;38.58
65369;HTU21D;51970;53.484;49.488;2023-04-29T04:29:41;19.73;38.47
65369;HTU21D;51970;53.484;49.488;2023-04-29T04:32:12;19.86;37.67
65369;HTU21D;51970;53.484;49.488;2023-04-29T04:34:43;19.89;37.85
65369;HTU21D;51970;53.484;49.488;2023-04-29T04:37:22;19.97;38.22
65369;HTU21D;51970;53.484;49.488;2023-04-29T04:39:48;19.98;38.32
65369;HTU21D;51970;53.484;49.488;2023-04-29T04:42:14;20.12;38.18
65369;HTU21D;51970;53.484;49.488;2023-04-29T04:44:41;20.27;36.99
65369;HTU21D;51970;53.484;49.488;2023-04-29T04:47:08;20.40;35.95
65369;HTU21D;51970;53.484;49.488;2023-04-29T04:49:37;20.56;34.65
65369;HTU21D;51970;53.484;49.488;2023-04-29T04:52:08;20.53;34.72
65369;HTU21D;51970;53.484;49.488;2023-04-29T04:54:53;20.57;34.25
65369;HTU21D;51970;53.484;49.488;2023-04-29T04:57:19;20.61;33.86
65369;HTU21D;51970;53.484;49.488;2023-04-29T04:59:47;20.72;34.12
65369;HTU21D;51970;53.484;49.488;2023-04-29T05:02:16;20.93;33.60
65369;HTU21D;51970;53.484;49.488;2023-04-29T05:04:44;21.09;33.96
65369;HTU21D;51970;53.484;49.488;2023-04-29T05:07:12;21.25;33.44
65369;HTU21D;51970;53.484;49.488;2023-04-29T05:09:38;21.19;33.01
65369;HTU21D;51970;53.484;49.488;2023-04-29T05:12:05;21.15;33.31
65369;HTU21D;51970;53.484;49.488;2023-04-29T05:14:31;21.08;33.42
65369;HTU21D;51970;53.484;49.488;2023-04-29T05:16:58;21.08;33.36
65369;HTU21D;51970;53.484;49.488;2023-04-29T05:19:35;21.28;32.48
65369;HTU21D;51970;53.484;49.488;2023-04-29T05:22:04;21.40;32.41
65369;HTU21D;51970;53.484;49.488;2023-04-29T05:24:30;21.45;32.62
65369;HTU21D;51970;53.484;49.488;2023-04-29T05:26:57;21.57;31.62
65369;HTU21D;51970;53.484;49.488;2023-04-29T05:29:23;21.77;31.47
65369;HTU21D;51970;53.484;49.488;2023-04-29T05:31:52;21.95;30.64
65369;HTU21D;51970;53.484;49.488;2023-04-29T05:34:20;22.03;30.31
65369;HTU21D;51970;53.484;49.488;2023-04-29T05:36:47;22.08;29.35
65369;HTU21D;51970;53.484;49.488;2023-04-29T05:39:13;22.24;28.77
65369;HTU21D;51970;53.484;49.488;2023-04-29T05:41:40;22.32;28.06
65369;HTU21D;51970;53.484;49.488;2023-04-29T05:44:09;22.33;28.34
65369;HTU21D;51970;53.484;49.488;2023-04-29T05:46:45;22.32;28.29
65369;HTU21D;51970;53.484;49.488;2023-04-29T05:49:14;22.35;28.39
65369;HTU21D;51970;53.484;49.488;2023-04-29T05:51:46;22.52;27.71
65369;HTU21D;51970;53.484;49.488;2023-04-29T05:54:14;22.56;27.41
65369;HTU21D;51970;53.484;49.488;2023-04-29T05:56:42;22.61;26.77
65369;HTU21D;51970;53.484;49.488;2023-04-29T05:59:20;22.63;27.58
65369;HTU21D;51970;53.484;49.488;2023-04-29T06:01:46;22.78;27.33
65369;HTU21D;51970;53.484;49.488;2023-04-29T06:04:14;22.86;27.10
65369;HTU21D;51970;53.484;49.488;2023-04-29T06:06:40;22.85;27.32
65369;HTU21D;51970;53.484;49.488;2023-04-29T06:09:07;22.96;27.56
65369;HTU21D;51970;53.484;49.488;2023-04-29T06:11:36;22.97;26.81
65369;HTU21D;51970;53.484;49.488;2023-04-29T06:14:07;23.00;27.08
65369;HTU21D;51970;53.484;49.488;2023-04-29T06:16:36;23.27;26.65
65369;HTU21D;51970;53.484;49.488;2023-04-29T06:19:06;23.30;25.33
65369;HTU21D;51970;53.484;49.488;2023-04-29T06:21:35;23.34;25.76
65369;HTU21D;51970;53.484;49.488;2023-04-29T06:24:04;23.31;26.01
65369;HTU21D;51970;53.484;49.488;2023-04-29T06:26:32;23.32;25.94
65369;HTU21D;51970;53.484;49.488;2023-04-29T06:29:09;23.43;25.40
65369;HTU21D;51970;53.484;49.488;2023-04-29T06:31:36;23.71;25.11
65369;HTU21D;51970;53.484;49.488;2023-04-29T06:34:04;23.67;24.84
65369;HTU21D;51970;53.484;49.488;2023-04-29T06:36:34;23.62;24.87
65369;HTU21D;51970;53.484;49.488;2023-04-29T06:39:07;23.64;24.94
65369;HTU21D;51970;53.484;49.488;2023-04-29T06:41:38;23.68;24.90
65369;HTU21D;51970;53.484;49.488;2023-04-29T06:44:07;23.72;25.28
65369;HTU21D;51970;53.484;49.488;2023-04-29T06:46:35;23.85;24.88
65369;HTU21D;51970;53.484;49.488;2023-04-29T06:49:02;23.88;24.47
65369;HTU21D;51970;53.484;49.488;2023-04-29T06:51:40;23.86;24.76
65369;HTU21D;51970;53.484;49.488;2023-04-29T06:54:10;23.96;25.15
65369;HTU21D;51970;53.484;49.488;2023-04-29T06:57:17;24.21;24.61
65369;HTU21D;51970;53.484;49.488;2023-04-29T07:00:09;24.19;24.83
65369;HTU21D;51970;53.484;49.488;2023-04-29T07:02:38;24.10;24.12
65369;HTU21D;51970;53.484;49.488;2023-04-29T07:05:10;24.05;24.19
65369;HTU21D;51970;53.484;49.488;2023-04-29T07:08:39;23.97;24.73
65369;HTU21D;51970;53.484;49.488;2023-04-29T07:11:57;24.14;25.65
65369;HTU21D;51970;53.484;49.488;2023-04-29T07:14:30;24.28;24.87
65369;HTU21D;51970;53.484;49.488;2023-04-29T07:17:08;24.23;24.63
65369;HTU21D;51970;53.484;49.488;2023-04-29T07:19:41;24.33;25.04
65369;HTU21D;51970;53.484;49.488;2023-04-29T07:22:43;24.32;25.37
65369;HTU21D;51970;53.484;49.488;2023-04-29T07:26:07;24.19;25.01
65369;HTU21D;51970;53.484;49.488;2023-04-29T07:28:52;24.18;24.98
65369;HTU21D;51970;53.484;49.488;2023-04-29T07:31:55;24.19;25.29
65369;HTU21D;51970;53.484;49.488;2023-04-29T07:34:32;24.28;25.16
65369;HTU21D;51970;53.484;49.488;2023-04-29T07:37:27;24.47;25.60
65369;HTU21D;51970;53.484;49.488;2023-04-29T07:39:59;24.55;25.05
65369;HTU21D;51970;53.484;49.488;2023-04-29T07:42:39;24.56;25.37
65369;HTU21D;51970;53.484;49.488;2023-04-29T07:45:27;24.78;25.32
65369;HTU21D;51970;53.484;49.488;2023-04-29T07:47:59;24.57;26.19
65369;HTU21D;51970;53.484;49.488;2023-04-29T07:50:25;24.51;26.28
65369;HTU21D;51970;53.484;49.488;2023-04-29T07:52:53;24.54;25.83
65369;HTU21D;51970;53.484;49.488;2023-04-29T07:55:57;24.49;26.06
65369;HTU21D;51970;53.484;49.488;2023-04-29T07:58:32;24.40;26.58
65369;HTU21D;51970;53.484;49.488;2023-04-29T08:01:08;24.62;26.21
65369;HTU21D;51970;53.484;49.488;2023-04-29T08:03:40;24.72;26.10
65369;HTU21D;51970;53.484;49.488;2023-04-29T08:06:14;24.84;25.54
65369;HTU21D;51970;53.484;49.488;2023-04-29T08:08:41;24.74;25.81
65369;HTU21D;51970;53.484;49.488;2023-04-29T08:11:15;24.62;25.68
65369;HTU21D;51970;53.484;49.488;2023-04-29T08:13:46;24.61;25.65
65369;HTU21D;51970;53.484;49.488;2023-04-29T08:16:14;24.69;26.33
65369;HTU21D;51970;53.484;49.488;2023-04-29T08:18:41;24.85;25.81
65369;HTU21D;51970;53.484;49.488;2023-04-29T08:21:07;24.80;26.02
65369;HTU21D;51970;53.484;49.488;2023-04-29T08:23:43;24.95;24.95
65369;HTU21D;51970;53.484;49.488;2023-04-29T08:26:45;25.10;25.34
65369;HTU21D;51970;53.484;49.488;2023-04-29T08:29:50;25.12;24.97
65369;HTU21D;51970;53.484;49.488;2023-04-29T08:32:18;25.15;24.20
65369;HTU21D;51970;53.484;49.488;2023-04-29T08:34:58;25.28;24.71
65369;HTU21D;51970;53.484;49.488;2023-04-29T08:37:30;25.53;24.94
65369;HTU21D;51970;53.484;49.488;2023-04-29T08:40:45;25.67;24.26
65369;HTU21D;51970;53.484;49.488;2023-04-29T08:43:56;25.68;23.87
65369;HTU21D;51970;53.484;49.488;2023-04-29T08:46:33;25.62;23.88
65369;HTU21D;51970;53.484;49.488;2023-04-29T08:49:39;25.72;24.08
65369;HTU21D;51970;53.484;49.488;2023-04-29T08:52:40;25.83;22.96
65369;HTU21D;51970;53.484;49.488;2023-04-29T08:55:09;25.69;22.85
65369;HTU21D;51970;53.484;49.488;2023-04-29T08:58:13;25.82;23.40
65369;HTU21D;51970;53.484;49.488;2023-04-29T09:01:06;25.89;22.55
65369;HTU21D;51970;53.484;49.488;2023-04-29T09:04:31;25.66;22.94
65369;HTU21D;51970;53.484;49.488;2023-04-29T09:07:23;25.66;23.49
65369;HTU21D;51970;53.484;49.488;2023-04-29T09:10:36;25.77;22.43
65369;HTU21D;51970;53.484;49.488;2023-04-29T09:13:21;25.98;23.08
65369;HTU21D;51970;53.484;49.488;2023-04-29T09:15:59;26.01;22.61
65369;HTU21D;51970;53.484;49.488;2023-04-29T09:18:52;26.12;22.31
65369;HTU21D;51970;53.484;49.488;2023-04-29T09:21:32;25.95;22.61
65369;HTU21D;51970;53.484;49.488;2023-04-29T09:25:24;26.03;21.63
65369;HTU21D;51970;53.484;49.488;2023-04-29T09:28:24;26.09;21.72
65369;HTU21D;51970;53.484;49.488;2023-04-29T09:31:29;26.13;21.92
65369;HTU21D;51970;53.484;49.488;2023-04-29T09:34:06;26.06;21.57
65369;HTU21D;51970;53.484;49.488;2023-04-29T09:36:58;26.03;22.07
65369;HTU21D;51970;53.484;49.488;2023-04-29T09:39:48;25.97;22.41
65369;HTU21D;51970;53.484;49.488;2023-04-29T09:43:15;26.10;21.90
65369;HTU21D;51970;53.484;49.488;2023-04-29T09:46:03;26.12;21.85
65369;HTU21D;51970;53.484;49.488;2023-04-29T09:48:52;26.20;22.19
65369;HTU21D;51970;53.484;49.488;2023-04-29T09:51:23;26.16;21.74
65369;HTU21D;51970;53.484;49.488;2023-04-29T09:53:49;26.19;20.76
65369;HTU21D;51970;53.484;49.488;2023-04-29T09:56:47;26.32;20.71
65369;HTU21D;51970;53.484;49.488;2023-04-29T09:59:20;26.37;21.41
65369;HTU21D;51970;53.484;49.488;2023-04-29T10:02:17;26.26;20.75
65369;HTU21D;51970;53.484;49.488;2023-04-29T10:04:53;26.18;21.41
65369;HTU21D;51970;53.484;49.488;2023-04-29T10:07:38;26.16;21.18
65369;HTU21D;51970;53.484;49.488;2023-04-29T10:10:24;26.31;22.03
65369;HTU21D;51970;53.484;49.488;2023-04-29T10:13:37;26.12;20.95
65369;HTU21D;51970;53.484;49.488;2023-04-29T10:17:15;26.16;21.40
65369;HTU21D;51970;53.484;49.488;2023-04-29T10:20:08;25.96;21.02
65369;HTU21D;51970;53.484;49.488;2023-04-29T10:22:49;26.01;21.31
65369;HTU21D;51970;53.484;49.488;2023-04-29T10:25:23;26.11;20.63
65369;HTU21D;51970;53.484;49.488;2023-04-29T10:28:17;26.33;20.58
65369;HTU21D;51970;53.484;49.488;2023-04-29T10:31:05;26.42;20.62
65369;HTU21D;51970;53.484;49.488;2023-04-29T10:33:50;26.58;20.99
65369;HTU21D;51970;53.484;49.488;2023-04-29T10:36:44;26.77;20.46
65369;HTU21D;51970;53.484;49.488;2023-04-29T10:43:25;26.33;20.60
65369;HTU21D;51970;53.484;49.488;2023-04-29T10:46:26;25.73;21.10
65369;HTU21D;51970;53.484;49.488;2023-04-29T10:49:08;25.79;21.45
65369;HTU21D;51970;53.484;49.488;2023-04-29T10:52:02;26.10;20.97
65369;HTU21D;51970;53.484;49.488;2023-04-29T10:54:35;26.26;20.79
65369;HTU21D;51970;53.484;49.488;2023-04-29T10:57:31;26.60;20.89
65369;HTU21D;51970;53.484;49.488;2023-04-29T11:00:38;26.79;21.25
65369;HTU21D;51970;53.484;49.488;2023-04-29T11:03:53;26.70;21.63
65369;HTU21D;51970;53.484;49.488;2023-04-29T11:06:54;26.94;21.42
65369;HTU21D;51970;53.484;49.488;2023-04-29T11:09:26;27.02;21.59
65369;HTU21D;51970;53.484;49.488;2023-04-29T11:12:08;27.04;20.88
65369;HTU21D;51970;53.484;49.488;2023-04-29T11:15:02;27.04;20.46
65369;HTU21D;51970;53.484;49.488;2023-04-29T11:17:56;27.11;20.41
65369;HTU21D;51970;53.484;49.488;2023-04-29T11:21:13;27.00;21.40
65369;HTU21D;51970;53.484;49.488;2023-04-29T11:25:16;26.98;21.07
65369;HTU21D;51970;53.484;49.488;2023-04-29T11:27:36;27.12;21.15
65369;HTU21D;51970;53.484;49.488;2023-04-29T11:30:31;26.95;20.90
65369;HTU21D;51970;53.484;49.488;2023-04-29T11:33:27;27.01;20.82
65369;HTU21D;51970;53.484;49.488;2023-04-29T11:36:54;27.01;21.40
65369;HTU21D;51970;53.484;49.488;2023-04-29T11:39:36;27.10;20.57
65369;HTU21D;51970;53.484;49.488;2023-04-29T11:42:05;27.16;20.70
65369;HTU21D;51970;53.484;49.488;2023-04-29T11:44:38;27.12;20.66
65369;HTU21D;51970;53.484;49.488;2023-04-29T11:47:16;26.71;21.05
65369;HTU21D;51970;53.484;49.488;2023-04-29T11:49:48;26.52;20.89
65369;HTU21D;51970;53.484;49.488;2023-04-29T11:52:48;26.71;21.21
65369;HTU21D;51970;53.484;49.488;2023-04-29T11:55:48;26.64;20.97
65369;HTU21D;51970;53.484;49.488;2023-04-29T11:58:30;26.64;20.82
65369;HTU21D;51970;53.484;49.488;2023-04-29T12:01:24;26.52;21.24
65369;HTU21D;51970;53.484;49.488;2023-04-29T12:04:05;26.52;21.16
65369;HTU21D;51970;53.484;49.488;2023-04-29T12:07:10;26.68;21.02
65369;HTU21D;51970;53.484;49.488;2023-04-29T12:09:50;26.61;20.86
65369;HTU21D;51970;53.484;49.488;2023-04-29T12:12:41;26.50;21.50
65369;HTU21D;51970;53.484;49.488;2023-04-29T12:15:14;26.55;20.93
65369;HTU21D;51970;53.484;49.488;2023-04-29T12:18:09;26.55;20.99
65369;HTU21D;51970;53.484;49.488;2023-04-29T12:20:57;26.55;21.32
65369;HTU21D;51970;53.484;49.488;2023-04-29T12:23:34;26.51;21.19
65369;HTU21D;51970;53.484;49.488;2023-04-29T12:26:21;26.42;21.98
65369;HTU21D;51970;53.484;49.488;2023-04-29T12:28:58;26.25;22.23
65369;HTU21D;51970;53.484;49.488;2023-04-29T12:31:35;26.21;22.27
65369;HTU21D;51970;53.484;49.488;2023-04-29T12:34:33;26.34;21.91
65369;HTU21D;51970;53.484;49.488;2023-04-29T12:37:08;26.38;21.78
65369;HTU21D;51970;53.484;49.488;2023-04-29T12:39:43;26.37;21.55
65369;HTU21D;51970;53.484;49.488;2023-04-29T12:42:16;26.21;22.27
65369;HTU21D;51970;53.484;49.488;2023-04-29T12:44:51;26.18;21.55
65369;HTU21D;51970;53.484;49.488;2023-04-29T12:47:23;26.16;21.38
65369;HTU21D;51970;53.484;49.488;2023-04-29T12:50:09;26.09;21.73
65369;HTU21D;51970;53.484;49.488;2023-04-29T12:52:51;26.11;22.84
65369;HTU21D;51970;53.484;49.488;2023-04-29T12:55:17;26.10;22.19
65369;HTU21D;51970;53.484;49.488;2023-04-29T12:57:52;26.07;21.60
65369;HTU21D;51970;53.484;49.488;2023-04-29T13:00:35;26.03;22.70
65369;HTU21D;51970;53.484;49.488;2023-04-29T13:03:06;25.93;23.08
65369;HTU21D;51970;53.484;49.488;2023-04-29T13:05:44;25.87;22.57
65369;HTU21D;51970;53.484;49.488;2023-04-29T13:08:48;25.90;22.04
65369;HTU21D;51970;53.484;49.488;2023-04-29T13:11:41;25.99;22.02
65369;HTU21D;51970;53.484;49.488;2023-04-29T13:14:10;26.05;22.08
65369;HTU21D;51970;53.484;49.488;2023-04-29T13:16:39;25.96;21.78
65369;HTU21D;51970;53.484;49.488;2023-04-29T13:19:31;25.91;22.43
65369;HTU21D;51970;53.484;49.488;2023-04-29T13:22:19;25.79;21.96
65369;HTU21D;51970;53.484;49.488;2023-04-29T13:24:49;25.74;22.07
65369;HTU21D;51970;53.484;49.488;2023-04-29T13:27:17;25.80;22.44
65369;HTU21D;51970;53.484;49.488;2023-04-29T13:29:45;25.78;21.50
65369;HTU21D;51970;53.484;49.488;2023-04-29T13:32:16;25.77;22.02
65369;HTU21D;51970;53.484;49.488;2023-04-29T13:34:54;25.78;22.32
65369;HTU21D;51970;53.484;49.488;2023-04-29T13:37:22;25.67;22.26
65369;HTU21D;51970;53.484;49.488;2023-04-29T13:39:56;25.61;22.40
65369;HTU21D;51970;53.484;49.488;2023-04-29T13:42:24;25.47;22.79
65369;HTU21D;51970;53.484;49.488;2023-04-29T13:44:54;25.47;23.30
65369;HTU21D;51970;53.484;49.488;2023-04-29T13:47:28;25.45;23.12
65369;HTU21D;51970;53.484;49.488;2023-04-29T13:50:10;25.28;23.14
65369;HTU21D;51970;53.484;49.488;2023-04-29T13:52:44;25.21;23.14
65369;HTU21D;51970;53.484;49.488;2023-04-29T13:56:01;25.24;23.14
65369;HTU21D;51970;53.484;49.488;2023-04-29T13:58:34;25.23;23.06
65369;HTU21D;51970;53.484;49.488;2023-04-29T14:01:09;25.24;22.81
65369;HTU21D;51970;53.484;49.488;2023-04-29T14:03:50;25.16;22.47
65369;HTU21D;51970;53.484;49.488;2023-04-29T14:06:57;25.16;22.64
65369;HTU21D;51970;53.484;49.488;2023-04-29T14:09:35;25.14;22.30
65369;HTU21D;51970;53.484;49.488;2023-04-29T14:12:08;25.14;22.50
65369;HTU21D;51970;53.484;49.488;2023-04-29T14:14:49;25.24;22.65
65369;HTU21D;51970;53.484;49.488;2023-04-29T14:17:22;25.63;22.13
65369;HTU21D;51970;53.484;49.488;2023-04-29T14:19:58;25.84;22.17
65369;HTU21D;51970;53.484;49.488;2023-04-29T14:22:34;25.91;22.10
65369;HTU21D;51970;53.484;49.488;2023-04-29T14:25:25;25.93;22.08
65369;HTU21D;51970;53.484;49.488;2023-04-29T14:27:53;26.01;22.41
65369;HTU21D;51970;53.484;49.488;2023-04-29T14:30:38;26.17;21.71
65369;HTU21D;51970;53.484;49.488;2023-04-29T14:33:18;26.39;21.69
65369;HTU21D;51970;53.484;49.488;2023-04-29T14:36:24;26.76;21.06
65369;HTU21D;51970;53.484;49.488;2023-04-29T14:39:01;27.02;20.72
65369;HTU21D;51970;53.484;49.488;2023-04-29T14:41:30;26.87;20.96
65369;HTU21D;51970;53.484;49.488;2023-04-29T14:44:08;25.92;22.14
65369;HTU21D;51970;53.484;49.488;2023-04-29T14:46:38;25.24;23.28
65369;HTU21D;51970;53.484;49.488;2023-04-29T14:49:26;24.78;23.82
65369;HTU21D;51970;53.484;49.488;2023-04-29T14:51:56;24.59;24.36
65369;HTU21D;51970;53.484;49.488;2023-04-29T14:54:24;24.45;24.81
65369;HTU21D;51970;53.484;49.488;2023-04-29T14:57:02;24.28;25.31
65369;HTU21D;51970;53.484;49.488;2023-04-29T14:59:28;24.15;25.54
65369;HTU21D;51970;53.484;49.488;2023-04-29T15:02:01;24.04;26.08
65369;HTU21D;51970;53.484;49.488;2023-04-29T15:04:40;23.90;26.26
65369;HTU21D;51970;53.484;49.488;2023-04-29T15:07:18;23.83;26.73
65369;HTU21D;51970;53.484;49.488;2023-04-29T15:09:44;23.76;26.71
65369;HTU21D;51970;53.484;49.488;2023-04-29T15:13:09;23.66;27.00
65369;HTU21D;51970;53.484;49.488;2023-04-29T15:15:48;23.52;27.59
65369;HTU21D;51970;53.484;49.488;2023-04-29T15:18:20;23.42;27.58
65369;HTU21D;51970;53.484;49.488;2023-04-29T15:20:52;23.32;28.00
65369;HTU21D;51970;53.484;49.488;2023-04-29T15:23:25;23.22;27.95
65369;HTU21D;51970;53.484;49.488;2023-04-29T15:26:04;23.10;28.39
65369;HTU21D;51970;53.484;49.488;2023-04-29T15:29:03;23.00;28.84
65369;HTU21D;51970;53.484;49.488;2023-04-29T15:31:45;22.84;29.16
65369;HTU21D;51970;53.484;49.488;2023-04-29T15:34:21;22.70;29.51
65369;HTU21D;51970;53.484;49.488;2023-04-29T15:37:00;22.58;29.80
65369;HTU21D;51970;53.484;49.488;2023-04-29T15:39:34;22.44;30.17
65369;HTU21D;51970;53.484;49.488;2023-04-29T15:42:26;22.29;30.44
65369;HTU21D;51970;53.484;49.488;2023-04-29T15:44:56;22.16;30.64
65369;HTU21D;51970;53.484;49.488;2023-04-29T15:47:22;22.05;30.76
65369;HTU21D;51970;53.484;49.488;2023-04-29T15:49:59;21.94;31.22
65369;HTU21D;51970;53.484;49.488;2023-04-29T15:52:42;21.83;31.48
65369;HTU21D;51970;53.484;49.488;2023-04-29T15:55:32;21.74;31.88
65369;HTU21D;51970;53.484;49.488;2023-04-29T15:58:03;21.64;31.83
65369;HTU21D;51970;53.484;49.488;2023-04-29T16:00:31;21.57;32.04
65369;HTU21D;51970;53.484;49.488;2023-04-29T16:03:06;21.42;32.73
65369;HTU21D;51970;53.484;49.488;2023-04-29T16:05:35;21.23;33.20
65369;HTU21D;51970;53.484;49.488;2023-04-29T16:08:08;21.07;33.48
65369;HTU21D;51970;53.484;49.488;2023-04-29T16:10:47;20.95;34.26
65369;HTU21D;51970;53.484;49.488;2023-04-29T16:13:36;20.80;34.24
65369;HTU21D;51970;53.484;49.488;2023-04-29T16:16:17;20.60;35.21
65369;HTU21D;51970;53.484;49.488;2023-04-29T16:18:49;20.46;35.74
65369;HTU21D;51970;53.484;49.488;2023-04-29T16:21:17;20.35;35.98
65369;HTU21D;51970;53.484;49.488;2023-04-29T16:23:49;20.18;37.01
65369;HTU21D;51970;53.484;49.488;2023-04-29T16:26:18;20.02;37.91
65369;HTU21D;51970;53.484;49.488;2023-04-29T16:28:50;19.83;38.87